Avioradar koristi kolačiće da bi Vam omogućio jednostavnije i ugodnije korištenje stranice. 

AVIORADAR - Novosti i informacije

Poremećaj 08.03.2017

Nenad Sredojević.

f_800_450_16119285_00_images_SQUAWK_DBV_bura_18jan16_CTK_ctk_30.jpg

Na dubrovačkom području jaka bura ponovno uzrokuje poremećaj u zračnom prometu. 

Najjači zabilježeni udari bure do trenutka objave ovog teksta, po službenim METAR podatcima iznosili su 53 čvora (98 km/h) i to u vremenu između 6 i 7 sati ujutro što je prouzrokovalo kašnjenje jutarnjeg odlaska za Zagreb OU661/CTN6B od skoro dva sata.

I odlazak OU669/CTN6R (STD 13:20LT) za Zagreb je imao problema te je na stazi čekao povoljan trenutak za polijetanje što je i uspio u 13:40LT.

Let OU662/CTN8A iz Zagreba (STA 15:40LT) je prije prilaza (NERRA) preusmjeren na Split, a posljedično i odlazak OU665/CTN6J (STD 16:10LT).

- Trenutni METAR podatci: 

METAR LDDU 082030Z 03023G36KT 360V080 CAVOK 14/02 Q1012 NOSIG 

- Poslijednja TAF prognoza:

TAF LDDU 081727Z 0818/0918 02033G45KT CAVOK
                 TX18/0912Z TN10/0904Z
           BECMG 0819/0821 02023G35KT
           BECMG 0908/0910 24010KT
           BECMG 0911/0913 34015KT
           BECMG 0915/0917 02020G30KT=

Za ZL Dubrovnik je izdano i aerodromsko upozorenje:

WORH60 LDDU 081604
LDDU AD WRNG 3 VALID 081602/081900
SFC WSPD 30KT MAX 45 OBS 1602Z NC=

 -> OU664/CTN664 CTN ZAGREB (ZAG) 22:05 - Prilaz (NERRA 7A) - Sletio 22:00



Foto: Avioradar - arhiva